createdAt,value
2018-03-20T00:00:34.163Z,6.80
2018-03-20T00:03:02.467Z,7.47
2018-03-20T00:05:29.993Z,7.73
2018-03-20T00:07:58.271Z,7.30
2018-03-20T00:10:26.652Z,7.33
2018-03-20T00:12:54.184Z,6.87
2018-03-20T00:15:23.277Z,7.23
2018-03-20T00:17:50.798Z,8.50
2018-03-20T00:20:18.308Z,7.07
2018-03-20T00:22:46.632Z,6.83
2018-03-20T00:25:14.160Z,7.67
2018-03-20T00:27:41.716Z,7.17
2018-03-20T00:30:09.248Z,7.20
2018-03-20T00:32:38.295Z,7.60
2018-03-20T00:35:05.813Z,7.30
2018-03-20T00:37:34.101Z,7.70
2018-03-20T00:40:01.684Z,7.40
2018-03-20T00:42:29.216Z,7.30
2018-03-20T00:44:57.512Z,7.27
2018-03-20T00:47:25.029Z,7.10
2018-03-20T00:49:53.332Z,6.87
2018-03-20T00:52:21.701Z,7.07
2018-03-20T00:54:49.980Z,7.13
2018-03-20T00:57:17.490Z,7.80
2018-03-20T00:59:45.043Z,7.60
2018-03-20T01:02:12.644Z,7.50
2018-03-20T01:04:40.944Z,7.27
2018-03-20T01:07:08.472Z,8.27
2018-03-20T01:09:36.764Z,8.60
2018-03-20T01:12:04.284Z,7.80
2018-03-20T01:14:31.820Z,8.00
2018-03-20T01:16:59.428Z,8.67
2018-03-20T01:19:26.974Z,8.03
2018-03-20T01:21:54.479Z,7.03
2018-03-20T01:24:21.996Z,7.17
2018-03-20T01:26:50.411Z,7.70
2018-03-20T01:29:18.318Z,7.20
2018-03-20T01:31:45.826Z,7.83
2018-03-20T01:34:13.378Z,8.20
2018-03-20T01:36:40.951Z,7.60
2018-03-20T01:39:08.440Z,8.23
2018-03-20T01:41:35.960Z,7.50
2018-03-20T01:44:03.808Z,7.70
2018-03-20T01:46:31.334Z,7.33
2018-03-20T01:48:58.880Z,7.30
2018-03-20T01:51:26.420Z,8.97
2018-03-20T01:53:53.956Z,7.23
2018-03-20T01:56:21.622Z,7.10
2018-03-20T01:58:49.344Z,8.80
2018-03-20T02:01:17.619Z,8.17
2018-03-20T02:03:45.899Z,7.20
2018-03-20T02:06:14.460Z,7.77
2018-03-20T02:08:41.968Z,8.00
2018-03-20T02:11:09.510Z,6.60
2018-03-20T02:13:37.056Z,7.30
2018-03-20T02:16:05.363Z,7.90
2018-03-20T02:18:32.866Z,8.27
2018-03-20T02:21:00.862Z,7.73
2018-03-20T02:23:28.410Z,7.10
2018-03-20T02:25:56.717Z,6.73
2018-03-20T02:28:24.579Z,8.67
2018-03-20T02:30:52.847Z,9.03
2018-03-20T02:33:20.530Z,8.30
2018-03-20T02:35:48.111Z,8.93
2018-03-20T02:38:15.617Z,8.40
2018-03-20T02:40:44.020Z,8.57
2018-03-20T02:43:11.559Z,9.20
2018-03-20T02:45:39.073Z,10.73
2018-03-20T02:48:06.567Z,11.20
2018-03-20T02:50:34.130Z,12.67
2018-03-20T02:53:01.647Z,18.77
2018-03-20T02:55:29.227Z,14.60
2018-03-20T02:57:57.565Z,11.90
2018-03-20T03:00:25.098Z,11.10
2018-03-20T03:02:52.688Z,10.47
2018-03-20T03:05:20.247Z,11.87
2018-03-20T03:07:47.879Z,9.90
2018-03-20T03:10:15.396Z,10.30
2018-03-20T03:12:43.692Z,10.10
2018-03-20T03:15:11.215Z,10.57
2018-03-20T03:17:38.736Z,10.07
2018-03-20T03:20:06.695Z,10.40
2018-03-20T03:22:34.184Z,9.30
2018-03-20T03:25:01.728Z,10.83
2018-03-20T03:27:29.273Z,11.67
2018-03-20T03:29:56.789Z,10.47
2018-03-20T03:32:25.081Z,10.70
2018-03-20T03:34:53.365Z,10.00
2018-03-20T03:37:20.889Z,11.17
2018-03-20T03:39:48.408Z,10.87
2018-03-20T03:42:15.971Z,10.87
2018-03-20T03:44:43.491Z,11.07
2018-03-20T03:47:11.161Z,11.30
2018-03-20T03:49:38.772Z,12.23
2018-03-20T03:52:07.095Z,12.73
2018-03-20T03:54:34.871Z,11.63
2018-03-20T03:57:02.408Z,12.60
2018-03-20T03:59:29.971Z,11.73
2018-03-20T04:01:57.619Z,12.17
2018-03-20T04:04:25.138Z,12.27
2018-03-20T04:06:52.757Z,70.40
2018-03-20T04:09:20.255Z,11.43
2018-03-20T04:11:47.772Z,10.63
2018-03-20T04:14:15.372Z,11.20
2018-03-20T04:16:42.994Z,8.57
2018-03-20T04:19:10.556Z,10.23
2018-03-20T04:21:38.128Z,9.53
2018-03-20T04:24:05.626Z,9.53
2018-03-20T04:26:33.926Z,11.00
2018-03-20T04:29:01.445Z,21.17
2018-03-20T04:31:29.033Z,13.50
2018-03-20T04:33:56.554Z,12.43
2018-03-20T04:36:24.068Z,11.43
2018-03-20T04:38:51.599Z,17.53
2018-03-20T04:41:19.925Z,10.67
2018-03-20T04:43:47.442Z,10.60
2018-03-20T04:46:15.728Z,11.50
2018-03-20T04:48:43.250Z,9.77
2018-03-20T04:51:11.528Z,10.23
2018-03-20T04:53:39.067Z,9.40
2018-03-20T04:56:06.985Z,9.67
2018-03-20T04:58:34.497Z,14.27
2018-03-20T05:01:02.018Z,10.90
2018-03-20T05:03:29.611Z,9.63
2018-03-20T05:05:57.145Z,11.00
2018-03-20T05:08:24.692Z,11.00
2018-03-20T05:10:52.418Z,10.07
2018-03-20T05:13:19.978Z,10.37
2018-03-20T05:15:48.296Z,11.00
2018-03-20T05:18:15.811Z,10.10
2018-03-20T05:23:48.340Z,9.77
2018-03-20T05:26:15.896Z,9.87
2018-03-20T05:28:43.441Z,10.60
2018-03-20T05:31:10.983Z,10.83
2018-03-20T05:33:39.298Z,10.53
2018-03-20T05:36:06.845Z,10.03
2018-03-20T05:38:34.373Z,11.33
2018-03-20T05:41:02.651Z,10.50
2018-03-20T05:43:31.349Z,10.40
2018-03-20T05:45:58.944Z,11.20
2018-03-20T05:51:50.052Z,10.80
2018-03-20T05:54:17.618Z,10.27
2018-03-20T05:56:45.122Z,10.80
2018-03-20T05:59:13.441Z,12.97
2018-03-20T06:01:41.001Z,12.17
2018-03-20T06:04:08.568Z,13.13
2018-03-20T06:06:36.091Z,10.63
2018-03-20T06:09:03.615Z,10.97
2018-03-20T06:11:31.112Z,11.70
2018-03-20T06:13:58.641Z,11.20
2018-03-20T06:16:26.248Z,12.53
2018-03-20T06:18:53.861Z,12.33
2018-03-20T06:21:22.183Z,13.53
2018-03-20T06:23:49.680Z,12.23
2018-03-20T06:26:17.280Z,12.60
2018-03-20T06:28:44.792Z,14.80
2018-03-20T06:31:12.357Z,14.80
2018-03-20T06:33:39.903Z,14.20
2018-03-20T06:36:07.447Z,14.87
2018-03-20T06:38:35.004Z,14.80
2018-03-20T06:41:02.775Z,15.23
2018-03-20T06:43:30.313Z,14.50
2018-03-20T06:45:57.799Z,14.27
2018-03-20T06:48:25.328Z,16.10
2018-03-20T06:50:52.878Z,14.57
2018-03-20T06:53:20.372Z,15.20
2018-03-20T06:55:47.903Z,15.40
2018-03-20T06:58:15.404Z,15.87
2018-03-20T07:00:42.936Z,17.03
2018-03-20T07:03:10.481Z,16.70
2018-03-20T07:05:37.995Z,16.20
2018-03-20T07:08:06.279Z,17.60
2018-03-20T07:10:33.877Z,16.30
2018-03-20T07:13:01.403Z,18.00
2018-03-20T07:15:28.956Z,17.33
2018-03-20T07:17:57.252Z,15.90
2018-03-20T07:20:24.765Z,16.93
2018-03-20T07:22:53.111Z,15.40
2018-03-20T07:25:21.362Z,16.60
2018-03-20T07:27:48.936Z,16.50
2018-03-20T07:30:16.454Z,17.83
2018-03-20T07:32:44.756Z,17.20
2018-03-20T07:35:12.267Z,17.83
2018-03-20T07:37:39.813Z,16.63
2018-03-20T07:40:07.330Z,17.40
2018-03-20T07:42:34.840Z,15.53
2018-03-20T07:45:03.130Z,16.30
2018-03-20T07:47:31.447Z,15.17
2018-03-20T07:49:59.047Z,16.73
2018-03-20T07:52:26.598Z,19.33
2018-03-20T07:54:54.118Z,15.97
2018-03-20T07:57:21.879Z,19.47
2018-03-20T07:59:49.383Z,16.80
2018-03-20T08:02:16.989Z,18.57
2018-03-20T08:04:44.502Z,20.93
2018-03-20T08:07:12.034Z,19.97
2018-03-20T08:09:39.543Z,20.40
2018-03-20T08:12:07.063Z,20.40
2018-03-20T08:14:34.644Z,19.40
2018-03-20T08:17:02.941Z,19.60
2018-03-20T08:19:30.492Z,18.93
2018-03-20T08:21:59.635Z,20.67
2018-03-20T08:24:27.136Z,19.80
2018-03-20T08:26:55.425Z,19.87
2018-03-20T08:29:22.989Z,18.23
2018-03-20T08:31:50.540Z,19.67
2018-03-20T08:34:19.253Z,17.43
2018-03-20T08:36:46.872Z,20.00
2018-03-20T08:39:15.148Z,19.03
2018-03-20T08:41:43.580Z,18.13
2018-03-20T08:44:11.126Z,19.10
2018-03-20T08:46:38.943Z,18.40
2018-03-20T08:49:06.450Z,20.70
2018-03-20T08:51:33.965Z,23.97
2018-03-20T08:54:02.249Z,20.87
2018-03-20T08:56:30.521Z,20.13
2018-03-20T08:58:58.868Z,21.30
2018-03-20T09:01:26.339Z,23.10
2018-03-20T09:03:54.638Z,23.87
2018-03-20T09:06:22.183Z,21.30
2018-03-20T09:08:49.721Z,24.43
2018-03-20T09:11:17.263Z,21.90
2018-03-20T09:13:44.900Z,20.83
2018-03-20T09:16:12.356Z,20.77
2018-03-20T09:18:40.022Z,19.00
2018-03-20T09:21:07.674Z,20.87
2018-03-20T09:23:35.184Z,20.90
2018-03-20T09:26:03.484Z,20.33
2018-03-20T09:28:31.008Z,18.47
2018-03-20T09:30:58.570Z,19.77
2018-03-20T09:33:26.907Z,20.90
2018-03-20T09:35:54.496Z,20.57
2018-03-20T09:38:22.803Z,20.47
2018-03-20T09:40:51.083Z,20.37
2018-03-20T09:43:18.637Z,22.50
2018-03-20T09:45:46.176Z,22.93
2018-03-20T09:48:14.474Z,21.70
2018-03-20T09:50:42.038Z,22.20
2018-03-20T09:53:09.581Z,24.90
2018-03-20T09:55:37.867Z,22.97
2018-03-20T09:58:05.387Z,21.73
2018-03-20T10:00:32.949Z,18.97
2018-03-20T10:03:01.950Z,20.37
2018-03-20T10:05:30.265Z,18.20
2018-03-20T10:07:57.835Z,20.20
2018-03-20T10:10:25.355Z,18.40
2018-03-20T10:12:54.575Z,17.47
2018-03-20T10:15:22.093Z,17.87
2018-03-20T10:17:50.508Z,18.20
2018-03-20T10:20:18.161Z,15.97
2018-03-20T10:22:45.624Z,14.33
2018-03-20T10:25:13.188Z,12.83
2018-03-20T10:27:40.711Z,12.07
2018-03-20T10:30:08.362Z,10.90
2018-03-20T10:32:35.911Z,10.83
2018-03-20T10:35:03.432Z,9.93
2018-03-20T10:37:31.091Z,9.90
2018-03-20T10:39:58.648Z,11.63
2018-03-20T10:42:26.164Z,11.73
2018-03-20T10:44:54.446Z,11.40
2018-03-20T10:47:22.735Z,9.20
2018-03-20T10:49:50.267Z,11.53
2018-03-20T10:52:17.859Z,10.83
2018-03-20T10:54:45.368Z,10.07
2018-03-20T10:57:13.488Z,8.57
2018-03-20T10:59:41.142Z,9.37
2018-03-20T11:02:14.344Z,8.70
2018-03-20T11:04:41.851Z,8.30
2018-03-20T11:07:09.359Z,8.23
2018-03-20T11:09:36.889Z,7.80
2018-03-20T11:12:06.304Z,8.40
2018-03-20T11:14:34.091Z,7.60
2018-03-20T11:17:02.226Z,7.77
2018-03-20T11:19:30.519Z,8.03
2018-03-20T11:21:58.815Z,6.80
2018-03-20T11:24:26.340Z,6.53
2018-03-20T11:26:54.684Z,5.60
2018-03-20T11:29:22.196Z,5.50
2018-03-20T11:31:49.701Z,5.30
2018-03-20T11:34:17.265Z,5.73
2018-03-20T11:36:44.767Z,4.87
2018-03-20T11:39:12.301Z,5.77
2018-03-20T11:41:39.999Z,4.30
2018-03-20T11:44:07.556Z,3.63
2018-03-20T11:46:35.091Z,4.67
2018-03-20T11:49:02.566Z,3.20
2018-03-20T11:51:30.152Z,4.00
2018-03-20T11:53:57.793Z,3.67
2018-03-20T11:56:25.310Z,3.17
2018-03-20T11:58:53.586Z,3.80
2018-03-20T12:01:23.063Z,4.20
2018-03-20T12:03:50.624Z,4.07
2018-03-20T12:06:19.040Z,4.23
2018-03-20T12:08:52.234Z,3.60
2018-03-20T12:11:20.470Z,4.60
2018-03-20T12:13:47.978Z,3.40
2018-03-20T12:16:15.523Z,3.83
2018-03-20T12:18:43.950Z,3.97
2018-03-20T12:21:11.493Z,4.13
2018-03-20T12:23:39.024Z,3.50
2018-03-20T12:26:06.560Z,3.97
2018-03-20T12:28:34.849Z,3.37
2018-03-20T12:31:03.160Z,3.10
2018-03-20T12:33:30.675Z,3.30
2018-03-20T12:35:58.212Z,3.27
2018-03-20T12:38:25.723Z,2.83
2018-03-20T12:40:53.217Z,2.90
2018-03-20T12:43:20.731Z,3.17
2018-03-20T12:45:48.311Z,3.20
2018-03-20T12:48:15.824Z,3.60
2018-03-20T12:50:44.130Z,3.10
2018-03-20T12:53:11.657Z,3.07
2018-03-20T12:55:39.982Z,2.90
2018-03-20T12:58:07.618Z,2.73
2018-03-20T13:00:35.115Z,2.60
2018-03-20T13:03:02.655Z,3.47
2018-03-20T13:05:30.167Z,3.10
2018-03-20T13:07:58.443Z,3.20
2018-03-20T13:10:26.716Z,2.47
2018-03-20T13:12:55.003Z,2.57
2018-03-20T13:15:23.206Z,3.30
2018-03-20T13:17:51.166Z,21.20
2018-03-20T13:20:18.821Z,19.83
2018-03-20T13:22:46.568Z,2.73
2018-03-20T13:25:14.094Z,3.27
2018-03-20T13:27:42.412Z,2.63
2018-03-20T13:30:10.038Z,2.83
2018-03-20T13:32:38.328Z,2.77
2018-03-20T13:35:06.030Z,2.50
2018-03-20T13:37:33.644Z,2.43
2018-03-20T13:40:01.304Z,2.77
2018-03-20T13:42:30.472Z,2.70
2018-03-20T13:44:58.050Z,2.70
2018-03-20T13:47:25.715Z,2.83
2018-03-20T13:49:54.023Z,2.63
2018-03-20T13:52:28.226Z,2.37
2018-03-20T13:54:56.103Z,3.33
2018-03-20T13:57:23.701Z,2.23
2018-03-20T13:59:51.867Z,2.37
2018-03-20T14:02:20.130Z,1.93
2018-03-20T14:04:47.744Z,3.03
2018-03-20T14:07:16.104Z,2.57
2018-03-20T14:09:43.658Z,2.37
2018-03-20T14:12:11.180Z,7.90
2018-03-20T14:14:38.769Z,2.80
2018-03-20T14:17:06.333Z,2.70
2018-03-20T14:19:33.933Z,2.57
2018-03-20T14:22:01.479Z,3.23
2018-03-20T14:24:29.399Z,2.80
2018-03-20T14:26:56.985Z,3.20
2018-03-20T14:29:24.625Z,2.20
2018-03-20T14:31:52.219Z,2.17
2018-03-20T14:34:20.694Z,3.03
2018-03-20T14:36:48.361Z,2.07
2018-03-20T14:39:15.893Z,2.17
2018-03-20T14:41:43.821Z,2.40
2018-03-20T14:44:11.375Z,2.37
2018-03-20T14:46:38.963Z,2.30
2018-03-20T14:49:07.030Z,2.33
2018-03-20T14:51:34.700Z,2.00
2018-03-20T14:54:02.363Z,2.77
2018-03-20T14:56:30.652Z,2.50
2018-03-20T14:58:59.089Z,2.10
2018-03-20T15:01:27.266Z,2.17
2018-03-20T15:03:56.517Z,2.60
2018-03-20T15:06:24.808Z,2.07
2018-03-20T15:08:52.776Z,2.17
2018-03-20T15:11:20.426Z,2.50
2018-03-20T15:13:48.011Z,2.37
2018-03-20T15:16:15.612Z,2.03
2018-03-20T15:18:43.142Z,2.70
2018-03-20T15:21:12.400Z,2.13
2018-03-20T15:23:40.851Z,2.20
2018-03-20T15:26:08.819Z,2.03
2018-03-20T15:28:36.369Z,1.93
2018-03-20T15:31:03.966Z,2.80
2018-03-20T15:33:32.369Z,7.37
2018-03-20T15:35:59.932Z,2.90
2018-03-20T15:38:27.465Z,2.87
2018-03-20T15:40:55.039Z,16.27
2018-03-20T15:43:23.378Z,2.43
2018-03-20T15:45:50.997Z,2.20
2018-03-20T15:48:19.244Z,2.43
2018-03-20T15:50:46.809Z,2.50
2018-03-20T15:53:14.365Z,2.50
2018-03-20T15:55:41.904Z,1.90
2018-03-20T15:58:10.216Z,3.00
2018-03-20T16:00:37.752Z,2.33
2018-03-20T16:03:05.394Z,2.03
2018-03-20T16:05:33.953Z,2.43
2018-03-20T16:08:01.820Z,2.90
2018-03-20T16:10:29.417Z,2.37
2018-03-20T16:13:08.128Z,2.40
2018-03-20T16:15:35.914Z,2.40
2018-03-20T16:18:04.493Z,2.23
2018-03-20T16:20:32.461Z,2.37
2018-03-20T16:23:09.938Z,2.03
2018-03-20T16:25:47.434Z,2.00
2018-03-20T16:28:16.691Z,2.40
2018-03-20T16:30:44.914Z,1.93
2018-03-20T16:33:23.254Z,2.87
2018-03-20T16:35:51.147Z,2.27
2018-03-20T16:38:19.251Z,2.67
2018-03-20T16:40:49.116Z,2.73
2018-03-20T16:43:18.305Z,2.90
2018-03-20T16:45:46.858Z,2.20
2018-03-20T16:48:18.074Z,2.63
2018-03-20T16:50:46.868Z,2.00
2018-03-20T16:53:14.824Z,2.50
2018-03-20T16:55:43.480Z,2.80
2018-03-20T16:58:11.010Z,2.03
2018-03-20T17:00:38.608Z,3.40
2018-03-20T17:03:06.208Z,2.90
2018-03-20T17:05:33.868Z,3.00
2018-03-20T17:08:01.433Z,2.70
2018-03-20T17:10:28.995Z,3.17
2018-03-20T17:12:57.315Z,60.87
2018-03-20T17:15:24.911Z,3.13
2018-03-20T17:17:54.258Z,3.60
2018-03-20T17:20:22.171Z,2.77
2018-03-20T17:22:51.376Z,3.40
2018-03-20T17:25:20.762Z,3.07
2018-03-20T17:27:49.056Z,3.17
2018-03-20T17:30:17.651Z,3.00
2018-03-20T17:32:45.305Z,4.83
2018-03-20T17:35:15.182Z,3.27
2018-03-20T17:37:43.624Z,3.50
2018-03-20T17:40:11.129Z,2.90
2018-03-20T17:42:39.420Z,2.33
2018-03-20T17:45:07.350Z,4.50
2018-03-20T17:47:35.474Z,2.90
2018-03-20T17:50:02.968Z,5.00
2018-03-20T17:52:30.685Z,2.83
2018-03-20T17:54:58.278Z,2.50
2018-03-20T17:57:26.707Z,2.60
2018-03-20T17:59:55.043Z,2.50
2018-03-20T18:02:23.488Z,2.80
2018-03-20T18:04:51.065Z,2.97
2018-03-20T18:07:18.596Z,3.00
2018-03-20T18:09:46.234Z,2.50
2018-03-20T18:12:14.643Z,2.17
2018-03-20T18:14:42.175Z,2.67
2018-03-20T18:17:09.877Z,2.50
2018-03-20T18:19:37.381Z,2.90
2018-03-20T18:22:16.183Z,17.97
2018-03-20T18:24:43.739Z,2.67
2018-03-20T18:27:11.373Z,2.30
2018-03-20T18:29:39.287Z,2.70
2018-03-20T18:32:07.772Z,2.83
2018-03-20T18:34:35.441Z,3.60
2018-03-20T18:37:02.977Z,3.00
2018-03-20T18:39:30.577Z,3.00
2018-03-20T18:41:58.099Z,4.90
2018-03-20T18:44:26.404Z,2.30
2018-03-20T18:46:53.915Z,2.40
2018-03-20T18:49:21.457Z,2.80
2018-03-20T18:51:49.132Z,2.83
2018-03-20T18:54:18.135Z,3.40
2018-03-20T18:56:47.218Z,3.60
2018-03-20T18:59:14.951Z,4.23
2018-03-20T19:01:42.958Z,4.30
2018-03-20T19:04:11.275Z,3.43
2018-03-20T19:06:49.782Z,3.67
2018-03-20T19:09:17.368Z,4.30
2018-03-20T19:11:56.193Z,3.77
2018-03-20T19:14:24.636Z,4.07
2018-03-20T19:16:52.915Z,4.13
2018-03-20T19:19:22.086Z,4.27
2018-03-20T19:21:50.236Z,4.57
2018-03-20T19:24:19.036Z,3.90
2018-03-20T19:26:46.675Z,4.27
2018-03-20T19:29:14.259Z,4.23
2018-03-20T19:31:42.540Z,3.90
2018-03-20T19:34:11.593Z,4.00
2018-03-20T19:36:39.890Z,3.67
2018-03-20T19:39:07.509Z,3.07
2018-03-20T19:41:35.503Z,35.37
2018-03-20T19:44:03.049Z,3.20
2018-03-20T19:46:31.420Z,4.80
2018-03-20T19:48:59.540Z,3.43
2018-03-20T19:51:38.957Z,3.80
2018-03-20T19:54:06.700Z,4.17
2018-03-20T19:56:34.409Z,3.63
2018-03-20T19:59:02.837Z,3.83
2018-03-20T20:01:30.460Z,4.00
2018-03-20T20:03:58.187Z,3.50
2018-03-20T20:06:26.701Z,3.73
2018-03-20T20:08:55.403Z,4.37
2018-03-20T20:11:23.681Z,4.40
2018-03-20T20:13:51.942Z,3.80
2018-03-20T20:16:20.334Z,4.30
2018-03-20T20:18:48.027Z,4.03
2018-03-20T20:21:15.549Z,3.97
2018-03-20T20:23:43.075Z,5.00
2018-03-20T20:26:10.618Z,4.40
2018-03-20T20:28:39.750Z,3.53
2018-03-20T20:31:08.028Z,3.90
2018-03-20T20:33:36.411Z,4.70
2018-03-20T20:36:03.955Z,4.07
2018-03-20T20:38:31.565Z,6.33
2018-03-20T20:41:00.139Z,4.30
2018-03-20T20:43:28.537Z,3.50
2018-03-20T20:45:56.078Z,3.90
2018-03-20T20:48:25.973Z,3.57
2018-03-20T20:50:53.629Z,3.90
2018-03-20T20:53:21.185Z,4.00
2018-03-20T20:55:49.013Z,3.57
2018-03-20T20:58:18.827Z,3.83
2018-03-20T21:00:46.335Z,4.67
2018-03-20T21:03:14.191Z,5.37
2018-03-20T21:05:41.864Z,3.57
2018-03-20T21:08:10.019Z,3.57
2018-03-20T21:10:37.623Z,3.90
2018-03-20T21:13:05.169Z,4.07
2018-03-20T21:15:33.768Z,3.17
2018-03-20T21:18:02.133Z,4.50
2018-03-20T21:20:29.769Z,3.93
2018-03-20T21:23:07.472Z,3.33
2018-03-20T21:25:36.184Z,3.30
2018-03-20T21:28:03.899Z,3.30
2018-03-20T21:30:32.530Z,3.53
2018-03-20T21:33:00.394Z,4.50
2018-03-20T21:35:27.942Z,4.07
2018-03-20T21:37:56.399Z,3.13
2018-03-20T21:40:23.944Z,3.77
2018-03-20T21:42:52.071Z,3.40
2018-03-20T21:45:19.642Z,5.10
2018-03-20T21:47:48.267Z,3.30
2018-03-20T21:50:17.569Z,3.40
2018-03-20T21:52:45.274Z,4.73
2018-03-20T21:55:12.774Z,3.80
2018-03-20T21:57:41.623Z,3.53
2018-03-20T22:00:09.199Z,3.90
2018-03-20T22:02:39.253Z,3.77
2018-03-20T22:05:07.193Z,3.93
2018-03-20T22:07:35.497Z,5.27
2018-03-20T22:10:03.014Z,4.40
2018-03-20T22:12:30.552Z,4.70
2018-03-20T22:14:58.099Z,4.53
2018-03-20T22:17:25.601Z,5.37
2018-03-20T22:19:53.872Z,4.10
2018-03-20T22:22:22.153Z,4.60
2018-03-20T22:24:49.708Z,4.37
2018-03-20T22:27:18.025Z,4.70
2018-03-20T22:29:45.589Z,4.27
2018-03-20T22:32:13.128Z,3.97
2018-03-20T22:34:40.688Z,4.63
2018-03-20T22:37:08.204Z,5.10
2018-03-20T22:39:36.561Z,5.73
2018-03-20T22:42:04.080Z,4.27
2018-03-20T22:44:31.665Z,4.30
2018-03-20T22:46:59.186Z,4.47
2018-03-20T22:49:26.752Z,4.47
2018-03-20T22:51:54.273Z,4.30
2018-03-20T22:54:21.768Z,4.50
2018-03-20T22:56:49.280Z,4.57
2018-03-20T22:59:16.798Z,3.80
2018-03-20T23:01:44.319Z,4.43
2018-03-20T23:04:12.105Z,3.83
2018-03-20T23:06:39.630Z,3.37
2018-03-20T23:09:07.128Z,4.27
2018-03-20T23:11:34.694Z,4.50
2018-03-20T23:14:02.225Z,5.00
2018-03-20T23:16:29.805Z,4.03
2018-03-20T23:18:57.317Z,3.93
2018-03-20T23:21:25.634Z,4.00
2018-03-20T23:23:53.152Z,3.17
2018-03-20T23:26:21.434Z,5.57
2018-03-20T23:28:49.750Z,4.00
2018-03-20T23:31:17.264Z,4.30
2018-03-20T23:33:46.280Z,4.10
2018-03-20T23:36:13.810Z,3.97
2018-03-20T23:38:42.068Z,3.90
2018-03-20T23:41:09.773Z,3.83
2018-03-20T23:43:37.283Z,4.40
2018-03-20T23:46:06.323Z,4.20
2018-03-20T23:48:33.839Z,4.70
2018-03-20T23:51:01.370Z,3.90
2018-03-20T23:53:28.886Z,4.77
2018-03-20T23:55:56.465Z,5.47
2018-03-20T23:58:24.019Z,4.40
